Terminal Aerodrome Forecast
Issued by NWS

Home | Current Version | Previous Version | Text Only | Print | Product List | Glossary On
Versions: 1 2 3 4 5 6 7 8 9 10 11 12 13 14 15 16 17 18 19 20 21 22 23 24 25 26 27 28 29 30 31 32 33 34 35 36
000
FTUS42 KTBW 191139
TAFRSW
TAF
KRSW 191139Z 1912/2012 16006KT P6SM VCTS SCT030CB BKN250
     FM191500 24012KT P6SM VCTS SCT025CB BKN050 BKN250
     FM192200 24008KT P6SM SCT035 BKN250
     FM200200 VRB04KT P6SM SCT025 SCT150=

USA.gov is the U.S. government's official web portal to all federal, state and local government web resources and services.